Time;durP1;ratioP1;P1;durP2;ratioP2;P2;SDS_P1;SDS_P2;PMS_P1;PMS_P2;Temp;Humidity;BMP_temperature;BMP_pressure;BME280_temperature;BME280_humidity;BME280_pressure;Samples;Min_cycle;Max_cycle;Signal;HPM_P1;HPM_P2
2022/07/06 00:00:56;;;;;;;3.17;2.45;;;;;;;11.02;100.00;93702.69;2098142;28;20577;-82
2022/07/06 00:01:57;;;;;;;4.07;2.47;;;;;;;11.09;100.00;93705.22;2090036;28;20046;-82
2022/07/06 00:02:58;;;;;;;4.35;2.58;;;;;;;11.15;100.00;93697.50;2099820;28;20021;-82
2022/07/06 00:04:01;;;;;;;2.63;2.40;;;;;;;11.22;100.00;93703.50;2106396;28;20100;-81
2022/07/06 00:05:03;;;;;;;5.10;2.30;;;;;;;11.17;100.00;93708.56;2098340;28;20036;-82
2022/07/06 00:06:05;;;;;;;3.13;2.40;;;;;;;11.04;100.00;93706.44;2096669;28;20455;-81
2022/07/06 00:07:06;;;;;;;3.20;2.30;;;;;;;11.17;100.00;93703.22;2098143;28;20027;-82
2022/07/06 00:08:07;;;;;;;3.45;2.92;;;;;;;11.08;100.00;93698.38;2113501;28;20027;-81
2022/07/06 00:09:09;;;;;;;3.78;2.40;;;;;;;11.08;100.00;93706.41;2107451;28;20035;-82
2022/07/06 00:10:10;;;;;;;3.65;2.10;;;;;;;11.03;100.00;93709.53;2098234;28;20020;-81
2022/07/06 00:11:11;;;;;;;4.05;2.38;;;;;;;11.05;100.00;93702.59;2104934;28;20050;-81
2022/07/06 00:12:12;;;;;;;3.50;2.20;;;;;;;11.08;100.00;93704.47;2098039;28;20028;-82
2022/07/06 00:13:13;;;;;;;2.83;2.25;;;;;;;11.07;100.00;93710.25;2106614;28;20574;-81
2022/07/06 00:14:15;;;;;;;2.70;2.50;;;;;;;11.06;100.00;93709.50;2106240;28;20097;-81
2022/07/06 00:15:18;;;;;;;4.80;2.38;;;;;;;10.96;100.00;93705.03;2098034;28;20025;-81
2022/07/06 00:16:20;;;;;;;3.78;2.80;;;;;;;10.84;100.00;93710.91;2089960;28;20060;-81
2022/07/06 00:17:21;;;;;;;3.97;2.10;;;;;;;10.92;100.00;93709.66;2090210;28;20093;-81
2022/07/06 00:18:22;;;;;;;3.28;2.00;;;;;;;10.88;100.00;93710.88;2089860;28;20053;-81
2022/07/06 00:19:23;;;;;;;3.60;2.00;;;;;;;10.75;100.00;93710.66;2081524;28;20393;-82
2022/07/06 00:20:25;;;;;;;5.30;1.90;;;;;;;10.64;100.00;93712.72;2089199;28;20041;-81
2022/07/06 00:21:26;;;;;;;2.72;2.30;;;;;;;10.75;100.00;93708.72;2106361;28;20028;-81
2022/07/06 00:22:28;;;;;;;4.63;2.33;;;;;;;10.66;100.00;93710.38;2106212;28;20047;-81
2022/07/06 00:23:29;;;;;;;3.28;2.28;;;;;;;10.78;100.00;93712.53;2089872;28;20031;-81
2022/07/06 00:24:30;;;;;;;3.10;2.47;;;;;;;10.85;100.00;93707.09;2098110;28;20020;-81
2022/07/06 00:25:32;;;;;;;3.25;2.28;;;;;;;10.83;100.00;93704.06;2106225;28;20031;-81
2022/07/06 00:26:33;;;;;;;3.30;2.20;;;;;;;10.93;100.00;93707.75;2114736;28;20024;-81
2022/07/06 00:27:36;;;;;;;3.08;2.20;;;;;;;10.87;100.00;93701.34;2114527;28;20038;-81
2022/07/06 00:28:37;;;;;;;5.53;2.28;;;;;;;10.71;100.00;93707.25;2098265;28;20021;-81
2022/07/06 00:29:43;;;;;;;3.35;2.50;;;;;;;10.57;100.00;93708.19;2089745;28;20094;-81
2022/07/06 00:30:44;;;;;;;3.05;2.30;;;;;;;10.67;100.00;93701.97;2097793;28;20027;-81
2022/07/06 00:31:48;;;;;;;2.70;2.00;;;;;;;10.76;100.00;93701.50;2081649;28;20104;-81
2022/07/06 00:32:49;;;;;;;4.28;2.42;;;;;;;10.84;100.00;93706.34;2098693;28;20031;-82
2022/07/06 00:33:50;;;;;;;3.70;2.20;;;;;;;10.82;100.00;93705.22;2106309;28;20094;-81
2022/07/06 00:34:52;;;;;;;2.83;2.45;;;;;;;10.77;100.00;93708.34;2097521;28;20089;-81
2022/07/06 00:35:54;;;;;;;2.55;2.30;;;;;;;10.75;100.00;93713.31;2111751;27;20071;-82
2022/07/06 00:36:55;;;;;;;4.75;2.30;;;;;;;10.74;100.00;93707.22;2114634;28;20110;-82
2022/07/06 00:37:58;;;;;;;3.08;2.20;;;;;;;10.56;100.00;93710.13;2097926;28;20040;-82
2022/07/06 00:38:59;;;;;;;4.97;2.08;;;;;;;10.68;100.00;93705.41;2097865;28;20420;-81
2022/07/06 00:40:00;;;;;;;2.65;2.17;;;;;;;10.67;100.00;93701.19;2089464;28;20082;-81
2022/07/06 00:41:01;;;;;;;4.63;2.30;;;;;;;10.46;100.00;93708.34;2089458;28;20116;-82
2022/07/06 00:42:05;;;;;;;2.20;2.00;;;;;;;10.58;100.00;93712.41;2106300;28;20038;-82
2022/07/06 00:43:08;;;;;;;4.55;2.28;;;;;;;10.65;100.00;93704.28;2108929;28;20514;-81
2022/07/06 00:44:09;;;;;;;2.30;2.10;;;;;;;10.71;100.00;93707.25;2089724;28;20033;-82
2022/07/06 00:45:12;;;;;;;3.20;2.28;;;;;;;10.55;100.00;93703.25;2097109;28;20107;-81
2022/07/06 00:46:15;;;;;;;3.05;2.28;;;;;;;10.45;100.00;93704.16;2090038;28;20117;-81
2022/07/06 00:47:16;;;;;;;3.03;2.35;;;;;;;10.54;100.00;93698.34;2098479;28;20036;-82
2022/07/06 00:48:17;;;;;;;4.75;2.20;;;;;;;10.63;100.00;93703.19;2114597;28;20448;-82
2022/07/06 00:50:39;;;;;;;6.68;2.40;;;;;;;10.55;100.00;93705.94;2102807;28;20036;-82
2022/07/06 00:51:40;;;;;;;2.72;2.08;;;;;;;10.60;100.00;93704.75;2106310;28;20070;-81
2022/07/06 00:52:43;;;;;;;4.35;2.10;;;;;;;10.61;100.00;93702.81;2097865;28;20025;-81
2022/07/06 00:53:44;;;;;;;3.38;2.13;;;;;;;10.61;100.00;93708.16;2089434;28;20029;-81
2022/07/06 00:54:46;;;;;;;4.47;2.33;;;;;;;10.52;100.00;93716.66;2097373;28;20028;-81
2022/07/06 00:55:49;;;;;;;4.78;2.75;;;;;;;10.58;100.00;93709.75;2097890;28;20024;-82
2022/07/06 00:56:51;;;;;;;2.97;2.25;;;;;;;10.65;100.00;93700.84;2106115;28;20046;-81
2022/07/06 00:57:52;;;;;;;2.58;2.22;;;;;;;10.65;100.00;93706.22;2113674;28;20081;-82
2022/07/06 00:58:53;;;;;;;5.13;2.30;;;;;;;10.62;100.00;93701.66;2108432;28;20028;-81
2022/07/06 00:59:56;;;;;;;3.78;2.22;;;;;;;10.61;100.00;93705.50;2097575;28;20016;-82
2022/07/06 01:00:59;;;;;;;4.53;2.50;;;;;;;10.56;100.00;93704.03;2099387;28;20029;-81
2022/07/06 01:02:00;;;;;;;2.75;2.10;;;;;;;10.52;100.00;93708.66;2115110;28;20103;-81
2022/07/06 01:03:02;;;;;;;2.30;2.10;;;;;;;10.53;100.00;93697.56;2123059;27;20023;-81
2022/07/06 01:04:03;;;;;;;2.63;2.05;;;;;;;10.50;100.00;93700.28;2107566;28;20027;-82
2022/07/06 01:05:06;;;;;;;5.07;2.20;;;;;;;10.37;100.00;93705.41;2089274;28;20071;-81
2022/07/06 01:06:07;;;;;;;4.35;2.53;;;;;;;10.42;100.00;93704.19;2089869;28;20094;-81
2022/07/06 01:07:10;;;;;;;3.35;2.50;;;;;;;10.41;100.00;93705.38;2092375;28;20064;-81
2022/07/06 01:08:12;;;;;;;2.53;2.25;;;;;;;10.42;100.00;93710.28;2097577;28;20570;-81
2022/07/06 01:09:13;;;;;;;2.40;2.20;;;;;;;10.43;100.00;93703.78;2098001;28;20031;-81
2022/07/06 01:10:17;;;;;;;6.90;2.40;;;;;;;10.33;100.00;93704.69;2106070;28;20028;-82
2022/07/06 01:11:19;;;;;;;3.72;2.17;;;;;;;10.31;100.00;93702.38;2114771;27;20051;-81
2022/07/06 01:12:20;;;;;;;1.98;1.85;;;;;;;10.30;100.00;93702.78;2113540;28;20055;-81
2022/07/06 01:13:22;;;;;;;2.85;2.05;;;;;;;10.22;100.00;93702.06;2094746;28;20069;-81
2022/07/06 01:14:24;;;;;;;4.82;2.50;;;;;;;10.29;100.00;93701.28;2105942;28;20024;-82
2022/07/06 01:15:25;;;;;;;3.15;2.65;;;;;;;10.15;100.00;93699.50;2113335;28;20030;-82
2022/07/06 01:16:27;;;;;;;6.18;2.65;;;;;;;10.09;100.00;93701.06;2105832;28;20027;-81
2022/07/06 01:17:28;;;;;;;4.68;2.33;;;;;;;10.20;100.00;93698.31;2089291;28;20492;-81
2022/07/06 01:18:29;;;;;;;3.70;2.40;;;;;;;10.26;100.00;93702.81;2089472;28;20024;-81
2022/07/06 01:19:30;;;;;;;3.92;2.05;;;;;;;10.12;100.00;93696.88;2089470;28;20051;-82
2022/07/06 01:20:33;;;;;;;2.70;2.50;;;;;;;10.09;100.00;93701.84;2097615;28;20035;-81
2022/07/06 01:21:37;;;;;;;2.10;2.00;;;;;;;10.18;100.00;93703.28;2100938;28;20026;-82
2022/07/06 01:22:39;;;;;;;3.85;2.28;;;;;;;10.20;100.00;93698.31;2106308;28;20124;-81
2022/07/06 01:23:45;;;;;;;4.05;2.00;;;;;;;10.09;100.00;93703.75;2106201;28;20056;-81
2022/07/06 01:24:46;;;;;;;2.67;2.08;;;;;;;10.16;100.00;93698.34;2106633;28;20468;-81
2022/07/06 01:25:47;;;;;;;2.38;2.17;;;;;;;10.17;100.00;93697.19;2097458;28;20095;-82
2022/07/06 01:26:48;;;;;;;2.40;2.10;;;;;;;10.19;100.00;93699.47;2097633;28;20489;-82
2022/07/06 01:27:50;;;;;;;4.95;2.22;;;;;;;10.18;100.00;93708.63;2114261;28;20023;-81
2022/07/06 01:28:52;;;;;;;4.75;2.13;;;;;;;10.18;100.00;93701.34;2122544;27;20479;-81
2022/07/06 01:29:53;;;;;;;2.50;2.30;;;;;;;10.15;100.00;93702.16;2122705;27;20023;-82
2022/07/06 01:30:54;;;;;;;4.20;2.13;;;;;;;10.04;100.00;93702.25;2122634;27;20114;-81
2022/07/06 01:31:55;;;;;;;3.53;2.13;;;;;;;10.07;100.00;93700.72;2105819;28;20020;-81
2022/07/06 01:32:56;;;;;;;2.88;2.10;;;;;;;10.03;100.00;93698.09;2097471;28;20081;-81
2022/07/06 01:33:58;;;;;;;2.72;2.53;;;;;;;10.07;100.00;93698.81;2097384;28;20024;-81
2022/07/06 01:35:00;;;;;;;5.78;2.20;;;;;;;10.04;100.00;93696.16;2089407;28;20025;-81
2022/07/06 01:36:01;;;;;;;5.22;2.28;;;;;;;9.96;100.00;93694.72;2090938;28;20029;-82
2022/07/06 01:37:06;;;;;;;2.58;2.13;;;;;;;10.04;100.00;93688.91;2097436;28;20039;-81
2022/07/06 01:38:07;;;;;;;3.83;2.40;;;;;;;10.04;100.00;93696.94;2105831;28;20027;-81
2022/07/06 01:39:09;;;;;;;4.22;2.40;;;;;;;10.11;100.00;93696.09;2089161;28;20021;-81
2022/07/06 01:40:11;;;;;;;3.55;2.03;;;;;;;10.04;100.00;93696.16;2105827;28;20073;-81
2022/07/06 01:41:14;;;;;;;4.78;2.50;;;;;;;9.99;100.00;93688.59;2113933;28;20145;-82
2022/07/06 01:42:17;;;;;;;2.40;2.20;;;;;;;9.83;100.00;93689.91;2114121;28;20122;-81
2022/07/06 01:43:18;;;;;;;3.33;2.45;;;;;;;9.88;100.00;93690.59;2114115;28;20118;-81
2022/07/06 01:44:19;;;;;;;9.25;2.17;;;;;;;9.90;100.00;93686.41;2105958;28;20051;-81
2022/07/06 01:45:20;;;;;;;6.75;2.28;;;;;;;9.93;100.00;93687.53;2114052;28;20061;-81
2022/07/06 01:46:23;;;;;;;3.33;2.15;;;;;;;10.00;100.00;93685.53;2114317;28;20069;-82
2022/07/06 01:47:24;;;;;;;2.95;2.13;;;;;;;9.89;100.00;93686.81;2114266;27;20089;-82
2022/07/06 01:48:25;;;;;;;3.10;2.28;;;;;;;9.77;100.00;93688.06;2113983;28;20019;-82
2022/07/06 01:49:26;;;;;;;7.07;2.65;;;;;;;9.81;100.00;93684.19;2105686;28;20023;-82
2022/07/06 01:50:27;;;;;;;2.28;2.08;;;;;;;9.88;100.00;93680.72;2105557;28;20464;-82
2022/07/06 01:51:28;;;;;;;4.70;2.38;;;;;;;9.92;100.00;93686.00;2114130;28;20037;-82
2022/07/06 01:52:29;;;;;;;3.03;2.60;;;;;;;9.92;100.00;93686.78;2105627;28;20063;-82
2022/07/06 01:53:31;;;;;;;2.78;2.00;;;;;;;9.91;100.00;93690.56;2105736;28;20028;-82
2022/07/06 01:54:32;;;;;;;3.53;2.22;;;;;;;9.95;100.00;93690.53;2105529;28;20065;-82
2022/07/06 01:55:33;;;;;;;3.33;2.20;;;;;;;9.79;100.00;93693.75;2105498;28;20450;-82
2022/07/06 01:56:35;;;;;;;5.28;2.38;;;;;;;9.57;100.00;93685.19;2097218;28;20020;-82
2022/07/06 01:57:36;;;;;;;8.82;2.20;;;;;;;9.68;100.00;93688.50;2089286;28;20116;-82
2022/07/06 01:58:38;;;;;;;2.53;2.13;;;;;;;9.73;100.00;93690.00;2100902;28;20028;-81
2022/07/06 01:59:39;;;;;;;4.90;2.08;;;;;;;9.68;100.00;93683.16;2097495;28;20020;-81
2022/07/06 02:00:41;;;;;;;2.95;2.30;;;;;;;9.75;100.00;93682.38;2105696;28;20024;-81
2022/07/06 02:01:42;;;;;;;4.05;2.10;;;;;;;9.74;100.00;93689.59;2105682;28;20476;-82
2022/07/06 02:02:45;;;;;;;2.22;2.03;;;;;;;9.78;100.00;93684.97;2097392;28;20034;-81
2022/07/06 02:03:47;;;;;;;3.20;2.08;;;;;;;9.64;100.00;93695.03;2105975;28;20085;-82
2022/07/06 02:04:48;;;;;;;5.95;2.40;;;;;;;9.66;100.00;93688.16;2105602;28;20363;-83
2022/07/06 02:05:49;;;;;;;3.95;2.10;;;;;;;9.71;100.00;93684.31;2105420;28;20119;-82
2022/07/06 02:06:52;;;;;;;4.18;2.50;;;;;;;9.59;100.00;93686.28;2105733;28;20019;-82
2022/07/06 02:07:53;;;;;;;2.90;2.30;;;;;;;9.63;100.00;93688.19;2105673;28;20391;-83
2022/07/06 02:08:55;;;;;;;6.07;2.65;;;;;;;9.69;100.00;93687.34;2105847;28;20101;-82
2022/07/06 02:09:56;;;;;;;3.70;2.10;;;;;;;9.49;100.00;93686.41;2113950;28;20027;-82
2022/07/06 02:10:58;;;;;;;3.70;2.58;;;;;;;9.45;100.00;93691.75;2114016;28;20027;-82
2022/07/06 02:11:59;;;;;;;5.03;2.22;;;;;;;9.63;100.00;93694.28;2113869;28;20106;-82
2022/07/06 02:13:01;;;;;;;4.93;2.40;;;;;;;9.66;100.00;93687.38;2122392;27;20094;-82
2022/07/06 02:14:02;;;;;;;3.00;2.10;;;;;;;9.57;100.00;93695.88;2113847;28;20051;-82
2022/07/06 02:15:03;;;;;;;3.03;2.30;;;;;;;9.59;100.00;93688.97;2114021;28;20061;-81
2022/07/06 02:16:05;;;;;;;3.95;2.33;;;;;;;9.51;100.00;93694.75;2122510;27;20030;-81
2022/07/06 02:17:07;;;;;;;5.13;2.15;;;;;;;9.57;100.00;93685.19;2113883;28;20047;-81
2022/07/06 02:18:09;;;;;;;4.57;2.28;;;;;;;9.54;100.00;93693.97;2106062;28;20028;-81
2022/07/06 02:19:10;;;;;;;5.88;2.38;;;;;;;9.54;100.00;93693.97;2113849;28;20016;-81
2022/07/06 02:20:12;;;;;;;3.35;2.42;;;;;;;9.43;100.00;93688.72;2114084;28;20047;-82
2022/07/06 02:21:13;;;;;;;2.33;2.13;;;;;;;9.50;100.00;93694.00;2113858;28;20030;-81
2022/07/06 02:22:15;;;;;;;5.55;2.17;;;;;;;9.55;100.00;93688.25;2105657;28;20371;-82
2022/07/06 02:23:17;;;;;;;2.70;2.33;;;;;;;9.47;100.00;93686.03;2097281;28;20031;-82
2022/07/06 02:24:18;;;;;;;2.30;2.10;;;;;;;9.34;100.00;93686.50;2088630;28;20063;-81
2022/07/06 02:25:19;;;;;;;3.35;2.33;;;;;;;9.29;100.00;93692.25;2097319;28;20050;-82
2022/07/06 02:26:20;;;;;;;2.33;2.10;;;;;;;9.35;100.00;93692.63;2122347;28;20054;-81
2022/07/06 02:27:21;;;;;;;4.93;2.53;;;;;;;9.32;100.00;93686.16;2096209;28;20052;-81
2022/07/06 02:28:23;;;;;;;6.32;2.33;;;;;;;9.39;100.00;93696.00;2087438;28;20025;-81
2022/07/06 02:29:25;;;;;;;2.92;2.40;;;;;;;9.32;100.00;93696.06;2088984;28;20036;-82
2022/07/06 02:30:27;;;;;;;3.15;2.70;;;;;;;9.41;100.00;93696.38;2097782;28;20024;-81
2022/07/06 02:31:28;;;;;;;3.35;2.10;;;;;;;9.49;100.00;93692.50;2105577;28;20069;-82
2022/07/06 02:32:29;;;;;;;2.95;2.30;;;;;;;9.37;100.00;93692.97;2105535;28;20389;-82
2022/07/06 02:33:30;;;;;;;3.13;2.72;;;;;;;9.32;100.00;93696.06;2097070;28;20029;-81
2022/07/06 02:34:31;;;;;;;3.20;2.50;;;;;;;9.32;100.00;93696.06;2103401;28;20131;-81
2022/07/06 02:35:33;;;;;;;2.90;2.53;;;;;;;9.37;100.00;93700.97;2113671;28;20031;-81
2022/07/06 02:36:34;;;;;;;4.45;2.75;;;;;;;9.41;100.00;93704.38;2105594;28;20106;-82
2022/07/06 02:37:35;;;;;;;4.55;2.65;;;;;;;9.24;100.00;93702.59;2097266;28;20628;-82
2022/07/06 02:38:36;;;;;;;4.13;2.45;;;;;;;9.25;100.00;93696.09;2097190;28;20070;-81
2022/07/06 02:39:37;;;;;;;5.90;2.63;;;;;;;9.26;100.00;93693.06;2097163;28;20025;-81
2022/07/06 02:40:39;;;;;;;3.65;2.63;;;;;;;9.17;100.00;93694.63;2097042;28;20032;-82
2022/07/06 02:41:41;;;;;;;3.72;2.40;;;;;;;9.24;100.00;93695.34;2114030;28;20534;-82
2022/07/06 02:42:44;;;;;;;4.28;2.45;;;;;;;9.24;100.00;93695.34;2123052;27;20019;-82
2022/07/06 02:43:45;;;;;;;2.78;2.35;;;;;;;9.31;100.00;93694.56;2113839;28;20031;-81
2022/07/06 02:44:48;;;;;;;3.90;2.50;;;;;;;9.34;100.00;93704.41;2113802;28;20051;-82
2022/07/06 02:45:49;;;;;;;3.33;2.60;;;;;;;9.36;100.00;93698.72;2101536;28;20549;-82
2022/07/06 02:46:51;;;;;;;4.72;2.60;;;;;;;9.28;100.00;93701.41;2114043;28;20024;-82
2022/07/06 02:47:55;;;;;;;5.47;2.60;;;;;;;9.20;100.00;93696.53;2113965;28;20527;-81
2022/07/06 02:48:57;;;;;;;3.00;2.50;;;;;;;9.21;100.00;93706.03;2112472;28;20024;-81
2022/07/06 02:49:58;;;;;;;5.68;2.75;;;;;;;9.22;100.00;93705.66;2086269;28;20028;-81
2022/07/06 02:50:59;;;;;;;3.63;2.65;;;;;;;9.18;100.00;93712.19;2089118;28;20041;-81
2022/07/06 02:52:00;;;;;;;3.58;2.90;;;;;;;9.03;100.00;93709.56;2113392;28;20100;-81
2022/07/06 02:53:01;;;;;;;2.85;2.60;;;;;;;9.11;100.00;93706.88;2105341;28;20024;-82
2022/07/06 02:54:03;;;;;;;2.88;2.58;;;;;;;8.94;100.00;93706.59;2111064;28;20488;-81
2022/07/06 02:55:06;;;;;;;4.30;2.85;;;;;;;8.94;100.00;93706.59;2107380;28;20541;-82
2022/07/06 02:56:07;;;;;;;6.32;2.90;;;;;;;9.00;100.00;93706.94;2097212;28;20025;-82
2022/07/06 02:57:09;;;;;;;3.22;2.92;;;;;;;9.02;100.00;93710.72;2096571;28;20029;-82
2022/07/06 02:58:11;;;;;;;4.80;2.78;;;;;;;9.02;100.00;93708.06;2097056;28;20507;-84
2022/07/06 02:59:13;;;;;;;4.10;3.08;;;;;;;9.12;100.00;93701.13;2122073;27;20080;-81
2022/07/06 03:00:14;;;;;;;4.55;2.95;;;;;;;9.15;100.00;93707.63;2113486;28;20050;-82
2022/07/06 03:01:15;;;;;;;3.22;3.00;;;;;;;9.13;100.00;93712.56;2105136;28;20028;-82
2022/07/06 03:02:17;;;;;;;3.35;2.90;;;;;;;9.08;100.00;93709.16;2097054;28;20119;-81
2022/07/06 03:03:20;;;;;;;3.88;3.00;;;;;;;9.05;100.00;93709.22;2097379;28;20240;-82
2022/07/06 03:04:21;;;;;;;4.40;3.25;;;;;;;9.05;100.00;93712.63;2106361;28;20020;-82
2022/07/06 03:05:23;;;;;;;3.85;3.20;;;;;;;9.10;100.00;93710.69;2122128;28;20015;-82
2022/07/06 03:06:24;;;;;;;6.53;3.60;;;;;;;8.94;100.00;93711.16;2105556;28;20522;-81
2022/07/06 03:07:25;;;;;;;4.30;2.97;;;;;;;9.03;100.00;93714.91;2105333;28;20020;-82
2022/07/06 03:08:26;;;;;;;6.55;3.22;;;;;;;9.03;100.00;93706.16;2105311;28;20020;-81
2022/07/06 03:09:27;;;;;;;3.35;2.88;;;;;;;8.98;100.00;93711.91;2105286;28;20020;-82
2022/07/06 03:10:28;;;;;;;4.28;3.15;;;;;;;9.03;100.00;93712.25;2099491;28;20028;-82
2022/07/06 03:11:30;;;;;;;5.18;3.42;;;;;;;8.99;100.00;93710.75;2105308;28;20028;-82
2022/07/06 03:12:31;;;;;;;5.00;3.30;;;;;;;8.92;100.00;93711.56;2117710;28;20034;-82
2022/07/06 03:13:32;;;;;;;5.57;3.30;;;;;;;8.90;100.00;93713.84;2113508;28;20468;-82
2022/07/06 03:14:41;;;;;;;4.60;3.20;;;;;;;8.79;100.00;93713.91;2106558;28;20028;-82
2022/07/06 03:15:42;;;;;;;6.05;3.70;;;;;;;8.77;100.00;93716.19;2106469;28;20705;-82
2022/07/06 03:16:43;;;;;;;4.85;3.60;;;;;;;8.83;100.00;93714.66;2105368;28;20028;-82
2022/07/06 03:17:44;;;;;;;3.55;3.25;;;;;;;8.83;100.00;93720.00;2097967;28;20025;-82
2022/07/06 03:18:45;;;;;;;3.67;3.25;;;;;;;8.86;100.00;93723.00;2090225;28;20051;-81
2022/07/06 03:19:46;;;;;;;6.40;3.45;;;;;;;8.77;100.00;93721.53;2090147;28;20098;-81
2022/07/06 03:20:48;;;;;;;6.95;4.00;;;;;;;8.88;100.00;93710.06;2090219;28;20036;-81
2022/07/06 03:21:49;;;;;;;5.88;3.95;;;;;;;8.91;100.00;93719.94;2090154;28;20099;-81
2022/07/06 03:22:50;;;;;;;4.95;4.05;;;;;;;8.90;100.00;93710.44;2082074;28;20025;-81
2022/07/06 03:23:51;;;;;;;7.00;4.55;;;;;;;8.81;100.00;93718.84;2098364;28;20500;-81
2022/07/06 03:24:52;;;;;;;6.63;4.80;;;;;;;8.78;100.00;93716.97;2098466;28;20025;-80
2022/07/06 03:25:53;;;;;;;6.03;4.05;;;;;;;8.74;100.00;93711.66;2106746;28;20078;-81
2022/07/06 03:26:55;;;;;;;5.93;4.25;;;;;;;8.85;100.00;93708.94;2106702;28;20404;-81
2022/07/06 03:27:56;;;;;;;5.65;4.07;;;;;;;8.83;100.00;93711.25;2106915;28;20024;-81
2022/07/06 03:28:57;;;;;;;5.50;3.80;;;;;;;8.79;100.00;93710.50;2115179;28;20053;-80
2022/07/06 03:29:58;;;;;;;5.60;3.72;;;;;;;8.83;100.00;93708.56;2120966;27;20023;-81
2022/07/06 03:30:59;;;;;;;5.13;3.70;;;;;;;8.87;100.00;93703.97;2106790;28;20056;-81
2022/07/06 03:32:00;;;;;;;5.07;3.40;;;;;;;8.89;100.00;93704.34;2098560;28;20024;-81
2022/07/06 03:33:03;;;;;;;6.70;3.58;;;;;;;8.90;100.00;93713.09;2090266;28;20119;-82
2022/07/06 03:34:04;;;;;;;5.88;3.63;;;;;;;8.77;100.00;93712.78;2107583;27;20024;-82
2022/07/06 03:35:06;;;;;;;4.18;3.78;;;;;;;8.84;100.00;93699.44;2115071;28;20384;-82
2022/07/06 03:36:08;;;;;;;3.90;3.58;;;;;;;8.76;100.00;93708.59;2115144;28;20053;-81
2022/07/06 03:37:09;;;;;;;4.03;3.33;;;;;;;8.83;100.00;93709.31;2115108;28;20511;-81
2022/07/06 03:38:12;;;;;;;5.15;3.60;;;;;;;8.83;100.00;93697.91;2107100;28;20020;-81
2022/07/06 03:39:13;;;;;;;6.65;3.38;;;;;;;8.76;100.00;93708.59;2123721;27;20471;-81
2022/07/06 03:40:15;;;;;;;4.35;3.45;;;;;;;8.75;100.00;93705.19;2106764;28;20031;-81
2022/07/06 03:41:16;;;;;;;5.43;3.83;;;;;;;8.75;100.00;93702.50;2106740;28;20415;-82
2022/07/06 03:42:17;;;;;;;5.90;3.58;;;;;;;8.70;100.00;93700.25;2114883;28;20054;-81
2022/07/06 03:43:19;;;;;;;10.98;3.95;;;;;;;8.77;100.00;93710.13;2098598;28;20035;-82
2022/07/06 03:44:20;;;;;;;7.85;3.72;;;;;;;8.74;100.00;93702.91;2106692;28;20073;-82
2022/07/06 03:45:21;;;;;;;4.50;4.10;;;;;;;8.75;100.00;93704.44;2098253;28;20013;-81
2022/07/06 03:46:22;;;;;;;6.85;4.03;;;;;;;8.77;100.00;93710.88;2103221;28;20024;-82
2022/07/06 03:47:23;;;;;;;7.28;4.40;;;;;;;8.76;100.00;93712.03;2098220;28;20028;-82
2022/07/06 03:48:26;;;;;;;6.32;4.75;;;;;;;8.66;100.00;93706.75;2098244;28;20036;-81
2022/07/06 03:49:27;;;;;;;4.70;4.22;;;;;;;8.62;100.00;93701.44;2113759;28;20031;-80
2022/07/06 03:50:29;;;;;;;5.55;4.20;;;;;;;8.72;100.00;93699.88;2106575;28;20078;-82
2022/07/06 03:51:30;;;;;;;4.80;4.05;;;;;;;8.81;100.00;93708.19;2106688;28;20129;-82
2022/07/06 03:52:31;;;;;;;7.32;4.10;;;;;;;8.79;100.00;93697.94;2106567;28;20103;-82
2022/07/06 03:53:33;;;;;;;6.38;4.07;;;;;;;8.84;100.00;93710.09;2098346;28;20074;-81
2022/07/06 03:54:35;;;;;;;5.35;4.10;;;;;;;8.87;100.00;93700.53;2098139;28;20073;-81
2022/07/06 03:55:36;;;;;;;4.35;3.88;;;;;;;8.87;100.00;93706.66;2098262;28;20401;-81
2022/07/06 03:56:38;;;;;;;5.47;3.75;;;;;;;8.70;100.00;93702.94;2098292;28;20028;-81
2022/07/06 03:57:40;;;;;;;7.07;3.60;;;;;;;8.61;100.00;93704.50;2106449;28;20028;-81
2022/07/06 03:58:42;;;;;;;6.07;3.88;;;;;;;8.56;100.00;93705.66;2111069;27;20065;-81
2022/07/06 03:59:43;;;;;;;4.45;3.72;;;;;;;8.58;100.00;93706.03;2115035;28;20437;-83
2022/07/06 04:00:44;;;;;;;5.57;3.95;;;;;;;8.74;100.00;93705.59;2098071;28;20670;-81
2022/07/06 04:01:45;;;;;;;5.25;3.60;;;;;;;8.84;100.00;93707.41;2090190;28;20021;-81
2022/07/06 04:02:46;;;;;;;5.15;3.75;;;;;;;8.87;100.00;93703.97;2102433;28;20555;-81
2022/07/06 04:03:48;;;;;;;7.60;3.83;;;;;;;8.85;100.00;93713.50;2090136;28;20031;-81
2022/07/06 04:04:49;;;;;;;8.02;4.07;;;;;;;8.80;100.00;93714.69;2098303;28;20114;-82
2022/07/06 04:05:50;;;;;;;4.60;3.78;;;;;;;8.84;100.00;93710.09;2114810;28;20057;-81
2022/07/06 04:06:52;;;;;;;3.97;3.53;;;;;;;8.82;100.00;93705.16;2114882;28;20034;-82
2022/07/06 04:07:53;;;;;;;6.38;3.28;;;;;;;8.89;100.00;93707.00;2106358;28;20035;-82
2022/07/06 04:08:54;;;;;;;6.15;3.70;;;;;;;8.93;100.00;93713.06;2089961;28;20104;-82
2022/07/06 04:09:56;;;;;;;6.82;3.65;;;;;;;8.98;100.00;93712.66;2090043;28;20118;-81
2022/07/06 04:10:58;;;;;;;4.85;3.70;;;;;;;9.00;100.00;93714.94;2106475;28;20103;-81
2022/07/06 04:12:00;;;;;;;4.40;4.05;;;;;;;8.96;100.00;93720.31;2106237;28;20024;-82
2022/07/06 04:13:01;;;;;;;5.05;3.42;;;;;;;9.00;100.00;93715.72;2106520;28;20028;-81
2022/07/06 04:14:02;;;;;;;3.55;3.25;;;;;;;9.00;100.00;93717.59;2106235;28;20047;-80
2022/07/06 04:15:04;;;;;;;10.55;4.00;;;;;;;9.02;100.00;93716.06;2098053;28;20016;-81
2022/07/06 04:16:06;;;;;;;6.75;3.53;;;;;;;8.95;100.00;93708.09;2113054;28;20034;-82
2022/07/06 04:18:27;;;;;;;4.18;3.80;;;;;;;9.05;100.00;93717.97;2123524;27;20083;-81
2022/07/06 04:19:28;;;;;;;3.78;3.47;;;;;;;9.11;100.00;93715.63;2123218;27;20026;-81
2022/07/06 04:20:31;;;;;;;4.05;3.50;;;;;;;9.06;100.00;93719.47;2106356;28;20111;-81
2022/07/06 04:21:32;;;;;;;6.43;3.75;;;;;;;9.07;100.00;93720.97;2098561;28;20027;-83
2022/07/06 04:22:33;;;;;;;4.28;3.45;;;;;;;9.11;100.00;93712.97;2098113;28;20032;-82
2022/07/06 04:23:36;;;;;;;4.57;3.90;;;;;;;9.16;100.00;93714.47;2106382;28;20030;-81
2022/07/06 04:24:37;;;;;;;4.68;3.60;;;;;;;9.19;100.00;93716.34;2115126;28;20059;-81
2022/07/06 04:25:38;;;;;;;4.00;3.35;;;;;;;9.23;100.00;93707.16;2106361;28;20019;-81
2022/07/06 04:26:39;;;;;;;5.13;3.60;;;;;;;9.23;100.00;93709.09;2106478;28;20036;-81
2022/07/06 04:27:41;;;;;;;3.83;3.42;;;;;;;9.25;100.00;93710.19;2114683;28;20475;-81
2022/07/06 04:28:42;;;;;;;7.10;3.20;;;;;;;9.29;100.00;93710.19;2114555;28;20045;-81
2022/07/06 04:29:43;;;;;;;5.03;3.20;;;;;;;9.27;100.00;93705.25;2106303;28;20039;-82
2022/07/06 04:30:45;;;;;;;4.28;3.28;;;;;;;9.31;100.00;93708.66;2097741;28;20049;-82
2022/07/06 04:31:46;;;;;;;4.60;3.10;;;;;;;9.29;100.00;93697.59;2106346;28;20551;-81
2022/07/06 04:32:48;;;;;;;6.55;3.67;;;;;;;9.30;100.00;93706.34;2106121;28;20032;-81
2022/07/06 04:33:49;;;;;;;5.00;3.28;;;;;;;9.37;100.00;93714.31;2098275;28;20058;-82
2022/07/06 04:34:51;;;;;;;6.88;3.53;;;;;;;9.42;100.00;93713.88;2106188;28;20386;-82
2022/07/06 04:35:52;;;;;;;4.07;3.78;;;;;;;9.43;100.00;93711.97;2106345;28;20694;-82
2022/07/06 04:36:53;;;;;;;3.95;3.40;;;;;;;9.49;100.00;93711.16;2106288;28;20030;-81
2022/07/06 04:37:54;;;;;;;6.20;3.30;;;;;;;9.50;100.00;93712.69;2106311;28;20404;-81
2022/07/06 04:38:55;;;;;;;4.25;3.80;;;;;;;9.53;100.00;93708.47;2097999;28;20024;-81
2022/07/06 04:39:57;;;;;;;7.60;3.30;;;;;;;9.54;100.00;93716.09;2095117;28;20024;-83
2022/07/06 04:40:58;;;;;;;4.00;3.60;;;;;;;9.58;100.00;93718.72;2106097;28;20110;-83
2022/07/06 04:41:59;;;;;;;5.25;3.75;;;;;;;9.62;100.00;93719.47;2114753;28;20042;-82
2022/07/06 04:43:00;;;;;;;4.13;3.20;;;;;;;9.66;100.00;93725.53;2114456;28;20023;-81
2022/07/06 04:44:02;;;;;;;4.15;3.65;;;;;;;9.67;100.00;93718.28;2106307;28;20650;-81
2022/07/06 04:45:04;;;;;;;4.60;3.55;;;;;;;9.69;100.00;93715.97;2114472;28;20023;-81
2022/07/06 04:46:05;;;;;;;4.68;3.55;;;;;;;9.74;100.00;93716.28;2106145;28;20078;-82
2022/07/06 04:47:07;;;;;;;3.80;3.33;;;;;;;9.78;100.00;93716.25;2098897;28;20078;-81
2022/07/06 04:48:09;;;;;;;6.13;3.90;;;;;;;9.78;100.00;93716.25;2098629;28;20025;-82
2022/07/06 04:49:10;;;;;;;3.20;2.90;;;;;;;9.80;100.00;93717.38;2091459;28;20033;-82
2022/07/06 04:50:12;;;;;;;5.95;3.60;;;;;;;9.79;100.00;93710.53;2097923;28;20032;-81
2022/07/06 04:51:14;;;;;;;3.65;3.33;;;;;;;9.86;100.00;93714.28;2101388;28;20031;-82
2022/07/06 04:52:15;;;;;;;4.07;3.63;;;;;;;9.92;100.00;93716.16;2106187;28;20028;-82